sensor_id;sensor_type;location;lat;lon;timestamp;P1;durP1;ratioP1;P2;durP2;ratioP2
3873;SDS011;1952;50.872;6.692;2022-07-29T00:30:49;2.63;;;2.43;;
3873;SDS011;1952;50.872;6.692;2022-07-29T00:33:22;5.17;;;3.30;;
3873;SDS011;1952;50.872;6.692;2022-07-29T00:36:00;6.00;;;2.60;;
3873;SDS011;1952;50.872;6.692;2022-07-29T00:38:35;3.17;;;2.83;;
3873;SDS011;1952;50.872;6.692;2022-07-29T00:41:03;2.80;;;2.40;;
3873;SDS011;1952;50.872;6.692;2022-07-29T00:43:36;2.77;;;2.57;;
3873;SDS011;1952;50.872;6.692;2022-07-29T00:46:05;3.30;;;3.00;;
3873;SDS011;1952;50.872;6.692;2022-07-29T00:48:33;4.40;;;2.90;;
3873;SDS011;1952;50.872;6.692;2022-07-29T00:51:07;3.83;;;3.30;;
3873;SDS011;1952;50.872;6.692;2022-07-29T00:53:41;5.20;;;2.73;;
3873;SDS011;1952;50.872;6.692;2022-07-29T00:56:09;7.07;;;2.90;;
3873;SDS011;1952;50.872;6.692;2022-07-29T00:58:38;6.20;;;2.63;;
3873;SDS011;1952;50.872;6.692;2022-07-29T01:01:08;6.10;;;3.40;;
3873;SDS011;1952;50.872;6.692;2022-07-29T01:03:36;3.17;;;2.63;;
3873;SDS011;1952;50.872;6.692;2022-07-29T01:06:04;7.13;;;3.00;;
3873;SDS011;1952;50.872;6.692;2022-07-29T01:08:33;7.13;;;2.70;;
3873;SDS011;1952;50.872;6.692;2022-07-29T01:11:07;3.20;;;2.53;;
3873;SDS011;1952;50.872;6.692;2022-07-29T01:13:35;4.47;;;3.10;;
3873;SDS011;1952;50.872;6.692;2022-07-29T01:16:06;3.60;;;2.47;;
3873;SDS011;1952;50.872;6.692;2022-07-29T01:18:44;10.50;;;3.40;;
3873;SDS011;1952;50.872;6.692;2022-07-29T01:21:21;4.13;;;2.90;;
3873;SDS011;1952;50.872;6.692;2022-07-29T01:27:03;4.20;;;2.90;;
3873;SDS011;1952;50.872;6.692;2022-07-29T01:29:45;9.23;;;3.07;;
3873;SDS011;1952;50.872;6.692;2022-07-29T01:32:24;6.80;;;3.60;;
3873;SDS011;1952;50.872;6.692;2022-07-29T01:34:56;3.13;;;2.77;;
3873;SDS011;1952;50.872;6.692;2022-07-29T01:37:29;3.57;;;2.97;;
3873;SDS011;1952;50.872;6.692;2022-07-29T01:40:04;3.83;;;3.10;;
3873;SDS011;1952;50.872;6.692;2022-07-29T01:42:41;3.70;;;2.90;;
3873;SDS011;1952;50.872;6.692;2022-07-29T01:45:17;4.67;;;2.80;;
3873;SDS011;1952;50.872;6.692;2022-07-29T01:47:49;3.10;;;2.90;;
3873;SDS011;1952;50.872;6.692;2022-07-29T01:50:26;6.73;;;2.90;;
3873;SDS011;1952;50.872;6.692;2022-07-29T01:53:05;5.07;;;2.80;;
3873;SDS011;1952;50.872;6.692;2022-07-29T01:55:42;3.93;;;3.10;;
3873;SDS011;1952;50.872;6.692;2022-07-29T01:58:17;6.53;;;3.10;;
3873;SDS011;1952;50.872;6.692;2022-07-29T02:00:55;3.53;;;2.73;;
3873;SDS011;1952;50.872;6.692;2022-07-29T02:03:24;4.73;;;3.40;;
3873;SDS011;1952;50.872;6.692;2022-07-29T02:05:54;2.77;;;2.57;;
3873;SDS011;1952;50.872;6.692;2022-07-29T02:08:23;3.53;;;3.23;;
3873;SDS011;1952;50.872;6.692;2022-07-29T02:10:53;3.57;;;3.30;;
3873;SDS011;1952;50.872;6.692;2022-07-29T02:13:27;4.33;;;3.30;;
3873;SDS011;1952;50.872;6.692;2022-07-29T02:16:04;6.50;;;3.33;;
3873;SDS011;1952;50.872;6.692;2022-07-29T02:18:35;4.43;;;3.03;;
3873;SDS011;1952;50.872;6.692;2022-07-29T02:21:11;4.83;;;3.47;;
3873;SDS011;1952;50.872;6.692;2022-07-29T02:23:44;4.70;;;3.07;;
3873;SDS011;1952;50.872;6.692;2022-07-29T02:26:17;4.83;;;3.10;;
3873;SDS011;1952;50.872;6.692;2022-07-29T02:28:57;3.77;;;3.47;;
3873;SDS011;1952;50.872;6.692;2022-07-29T02:31:28;6.47;;;3.00;;
3873;SDS011;1952;50.872;6.692;2022-07-29T02:34:06;4.17;;;3.27;;
3873;SDS011;1952;50.872;6.692;2022-07-29T02:36:41;3.50;;;3.20;;
3873;SDS011;1952;50.872;6.692;2022-07-29T02:39:14;6.03;;;2.93;;
3873;SDS011;1952;50.872;6.692;2022-07-29T02:41:48;4.97;;;3.40;;
3873;SDS011;1952;50.872;6.692;2022-07-29T02:44:24;7.90;;;3.50;;
3873;SDS011;1952;50.872;6.692;2022-07-29T02:47:15;4.90;;;3.60;;
3873;SDS011;1952;50.872;6.692;2022-07-29T02:49:48;5.70;;;3.37;;
3873;SDS011;1952;50.872;6.692;2022-07-29T02:52:26;4.77;;;3.50;;
3873;SDS011;1952;50.872;6.692;2022-07-29T02:55:01;6.63;;;3.00;;
3873;SDS011;1952;50.872;6.692;2022-07-29T02:57:55;6.23;;;3.23;;
3873;SDS011;1952;50.872;6.692;2022-07-29T03:00:35;6.23;;;3.20;;
3873;SDS011;1952;50.872;6.692;2022-07-29T03:03:08;4.60;;;3.50;;
3873;SDS011;1952;50.872;6.692;2022-07-29T03:05:43;4.20;;;3.00;;
3873;SDS011;1952;50.872;6.692;2022-07-29T03:08:12;6.53;;;3.93;;
3873;SDS011;1952;50.872;6.692;2022-07-29T03:10:47;7.30;;;4.77;;
3873;SDS011;1952;50.872;6.692;2022-07-29T03:13:22;7.17;;;3.40;;
3873;SDS011;1952;50.872;6.692;2022-07-29T03:15:51;5.03;;;2.97;;
3873;SDS011;1952;50.872;6.692;2022-07-29T03:18:21;4.97;;;3.33;;
3873;SDS011;1952;50.872;6.692;2022-07-29T03:20:54;7.50;;;3.30;;
3873;SDS011;1952;50.872;6.692;2022-07-29T03:23:30;5.10;;;3.53;;
3873;SDS011;1952;50.872;6.692;2022-07-29T03:25:58;8.17;;;3.30;;
3873;SDS011;1952;50.872;6.692;2022-07-29T03:28:27;6.90;;;3.80;;
3873;SDS011;1952;50.872;6.692;2022-07-29T03:31:01;6.73;;;3.20;;
3873;SDS011;1952;50.872;6.692;2022-07-29T03:33:34;4.90;;;3.70;;
3873;SDS011;1952;50.872;6.692;2022-07-29T03:36:02;4.00;;;3.40;;
3873;SDS011;1952;50.872;6.692;2022-07-29T03:38:35;6.23;;;3.57;;
3873;SDS011;1952;50.872;6.692;2022-07-29T03:41:05;10.20;;;3.90;;
3873;SDS011;1952;50.872;6.692;2022-07-29T03:43:37;4.77;;;3.07;;
3873;SDS011;1952;50.872;6.692;2022-07-29T03:46:15;6.50;;;4.23;;
3873;SDS011;1952;50.872;6.692;2022-07-29T03:48:48;5.53;;;3.07;;
3873;SDS011;1952;50.872;6.692;2022-07-29T03:51:18;4.57;;;3.17;;
3873;SDS011;1952;50.872;6.692;2022-07-29T03:53:58;8.10;;;4.43;;
3873;SDS011;1952;50.872;6.692;2022-07-29T03:56:37;6.13;;;3.80;;
3873;SDS011;1952;50.872;6.692;2022-07-29T03:59:07;4.53;;;3.40;;
3873;SDS011;1952;50.872;6.692;2022-07-29T04:01:36;4.73;;;3.43;;
3873;SDS011;1952;50.872;6.692;2022-07-29T04:04:09;3.13;;;2.93;;
3873;SDS011;1952;50.872;6.692;2022-07-29T04:06:39;5.93;;;4.00;;
3873;SDS011;1952;50.872;6.692;2022-07-29T04:09:16;7.27;;;3.73;;
3873;SDS011;1952;50.872;6.692;2022-07-29T04:11:46;4.50;;;3.60;;
3873;SDS011;1952;50.872;6.692;2022-07-29T04:14:28;3.53;;;3.23;;
3873;SDS011;1952;50.872;6.692;2022-07-29T04:17:02;4.67;;;3.30;;
3873;SDS011;1952;50.872;6.692;2022-07-29T04:19:36;4.30;;;3.20;;
3873;SDS011;1952;50.872;6.692;2022-07-29T04:22:05;4.57;;;3.43;;
3873;SDS011;1952;50.872;6.692;2022-07-29T04:24:34;5.60;;;3.03;;
3873;SDS011;1952;50.872;6.692;2022-07-29T04:27:17;3.47;;;3.17;;
3873;SDS011;1952;50.872;6.692;2022-07-29T04:29:51;4.77;;;3.77;;
3873;SDS011;1952;50.872;6.692;2022-07-29T04:32:22;3.43;;;3.00;;
3873;SDS011;1952;50.872;6.692;2022-07-29T04:34:58;3.40;;;3.10;;
3873;SDS011;1952;50.872;6.692;2022-07-29T04:37:32;5.93;;;3.03;;
3873;SDS011;1952;50.872;6.692;2022-07-29T04:40:02;5.10;;;3.20;;
3873;SDS011;1952;50.872;6.692;2022-07-29T04:42:37;5.10;;;4.33;;
3873;SDS011;1952;50.872;6.692;2022-07-29T04:45:13;3.70;;;3.33;;
3873;SDS011;1952;50.872;6.692;2022-07-29T04:47:47;4.23;;;3.20;;
3873;SDS011;1952;50.872;6.692;2022-07-29T04:50:18;3.57;;;3.23;;
3873;SDS011;1952;50.872;6.692;2022-07-29T04:52:46;3.40;;;3.10;;
3873;SDS011;1952;50.872;6.692;2022-07-29T04:55:29;5.90;;;3.27;;
3873;SDS011;1952;50.872;6.692;2022-07-29T04:58:00;3.43;;;3.13;;
3873;SDS011;1952;50.872;6.692;2022-07-29T05:00:29;5.20;;;4.63;;
3873;SDS011;1952;50.872;6.692;2022-07-29T05:03:07;3.27;;;3.00;;
3873;SDS011;1952;50.872;6.692;2022-07-29T05:05:38;7.13;;;4.07;;
3873;SDS011;1952;50.872;6.692;2022-07-29T05:08:07;4.77;;;2.90;;
3873;SDS011;1952;50.872;6.692;2022-07-29T05:10:35;4.10;;;3.70;;
3873;SDS011;1952;50.872;6.692;2022-07-29T05:13:04;4.30;;;3.53;;
3873;SDS011;1952;50.872;6.692;2022-07-29T05:15:35;3.70;;;3.50;;
3873;SDS011;1952;50.872;6.692;2022-07-29T05:18:04;3.93;;;3.30;;
3873;SDS011;1952;50.872;6.692;2022-07-29T05:20:32;4.37;;;3.53;;
3873;SDS011;1952;50.872;6.692;2022-07-29T05:23:03;6.03;;;3.83;;
3873;SDS011;1952;50.872;6.692;2022-07-29T05:25:32;4.33;;;3.87;;
3873;SDS011;1952;50.872;6.692;2022-07-29T05:28:05;3.90;;;3.50;;
3873;SDS011;1952;50.872;6.692;2022-07-29T05:30:34;4.77;;;3.57;;
3873;SDS011;1952;50.872;6.692;2022-07-29T05:33:03;4.30;;;3.60;;
3873;SDS011;1952;50.872;6.692;2022-07-29T05:35:31;3.93;;;3.53;;
3873;SDS011;1952;50.872;6.692;2022-07-29T05:38:14;6.00;;;3.73;;
3873;SDS011;1952;50.872;6.692;2022-07-29T05:40:42;3.33;;;3.03;;
3873;SDS011;1952;50.872;6.692;2022-07-29T05:43:16;6.40;;;3.80;;
3873;SDS011;1952;50.872;6.692;2022-07-29T05:45:52;4.50;;;3.30;;
3873;SDS011;1952;50.872;6.692;2022-07-29T05:48:20;17.83;;;4.67;;
3873;SDS011;1952;50.872;6.692;2022-07-29T05:50:48;6.37;;;4.43;;
3873;SDS011;1952;50.872;6.692;2022-07-29T06:47:08;9.43;;;5.50;;
3873;SDS011;1952;50.872;6.692;2022-07-29T06:49:37;5.57;;;5.07;;
3873;SDS011;1952;50.872;6.692;2022-07-29T06:52:33;6.80;;;5.13;;
3873;SDS011;1952;50.872;6.692;2022-07-29T06:55:09;6.00;;;5.13;;
3873;SDS011;1952;50.872;6.692;2022-07-29T06:58:07;5.40;;;4.63;;
3873;SDS011;1952;50.872;6.692;2022-07-29T07:01:02;7.27;;;5.43;;
3873;SDS011;1952;50.872;6.692;2022-07-29T07:10:52;10.23;;;5.70;;
3873;SDS011;1952;50.872;6.692;2022-07-29T07:13:21;6.27;;;5.67;;
3873;SDS011;1952;50.872;6.692;2022-07-29T07:15:52;6.00;;;5.40;;
3873;SDS011;1952;50.872;6.692;2022-07-29T07:18:21;7.20;;;4.93;;
3873;SDS011;1952;50.872;6.692;2022-07-29T07:20:50;5.60;;;5.07;;
3873;SDS011;1952;50.872;6.692;2022-07-29T07:23:46;6.23;;;4.40;;
3873;SDS011;1952;50.872;6.692;2022-07-29T07:26:35;7.67;;;5.70;;
3873;SDS011;1952;50.872;6.692;2022-07-29T07:29:05;6.90;;;5.60;;
3873;SDS011;1952;50.872;6.692;2022-07-29T07:31:40;8.53;;;6.00;;
3873;SDS011;1952;50.872;6.692;2022-07-29T07:34:36;6.90;;;6.10;;
3873;SDS011;1952;50.872;6.692;2022-07-29T07:37:32;8.20;;;6.17;;
3873;SDS011;1952;50.872;6.692;2022-07-29T07:40:37;10.03;;;6.70;;
3873;SDS011;1952;50.872;6.692;2022-07-29T08:04:12;7.67;;;5.77;;
3873;SDS011;1952;50.872;6.692;2022-07-29T08:06:41;7.37;;;6.67;;
3873;SDS011;1952;50.872;6.692;2022-07-29T08:09:09;7.33;;;6.43;;
3873;SDS011;1952;50.872;6.692;2022-07-29T08:11:54;7.07;;;5.87;;
3873;SDS011;1952;50.872;6.692;2022-07-29T08:14:23;7.13;;;6.40;;
3873;SDS011;1952;50.872;6.692;2022-07-29T08:16:51;6.60;;;5.67;;
3873;SDS011;1952;50.872;6.692;2022-07-29T08:19:23;8.57;;;5.70;;
3873;SDS011;1952;50.872;6.692;2022-07-29T08:21:56;6.90;;;5.80;;
3873;SDS011;1952;50.872;6.692;2022-07-29T08:24:25;8.20;;;6.73;;
3873;SDS011;1952;50.872;6.692;2022-07-29T08:27:19;6.13;;;5.60;;
3873;SDS011;1952;50.872;6.692;2022-07-29T08:30:08;6.07;;;5.50;;
3873;SDS011;1952;50.872;6.692;2022-07-29T08:32:36;6.57;;;5.80;;
3873;SDS011;1952;50.872;6.692;2022-07-29T08:35:23;7.17;;;5.73;;
3873;SDS011;1952;50.872;6.692;2022-07-29T08:37:51;7.00;;;6.30;;
3873;SDS011;1952;50.872;6.692;2022-07-29T08:40:25;7.50;;;6.27;;
3873;SDS011;1952;50.872;6.692;2022-07-29T08:42:54;7.17;;;5.33;;
3873;SDS011;1952;50.872;6.692;2022-07-29T08:45:23;9.70;;;6.20;;
3873;SDS011;1952;50.872;6.692;2022-07-29T08:47:53;7.27;;;5.70;;
3873;SDS011;1952;50.872;6.692;2022-07-29T08:50:23;10.83;;;6.23;;
3873;SDS011;1952;50.872;6.692;2022-07-29T08:52:51;7.40;;;5.43;;
3873;SDS011;1952;50.872;6.692;2022-07-29T08:55:25;5.90;;;5.40;;
3873;SDS011;1952;50.872;6.692;2022-07-29T08:57:53;6.97;;;5.40;;
3873;SDS011;1952;50.872;6.692;2022-07-29T09:00:22;5.50;;;5.03;;
3873;SDS011;1952;50.872;6.692;2022-07-29T09:02:56;9.00;;;5.40;;
3873;SDS011;1952;50.872;6.692;2022-07-29T09:05:31;7.37;;;5.43;;
3873;SDS011;1952;50.872;6.692;2022-07-29T09:08:06;8.43;;;5.77;;
3873;SDS011;1952;50.872;6.692;2022-07-29T09:10:36;5.10;;;4.40;;
3873;SDS011;1952;50.872;6.692;2022-07-29T09:13:05;5.70;;;4.33;;
3873;SDS011;1952;50.872;6.692;2022-07-29T09:15:33;4.80;;;4.00;;
3873;SDS011;1952;50.872;6.692;2022-07-29T09:18:07;6.87;;;5.00;;
3873;SDS011;1952;50.872;6.692;2022-07-29T09:20:59;9.13;;;3.90;;
3873;SDS011;1952;50.872;6.692;2022-07-29T09:23:59;4.43;;;4.03;;
3873;SDS011;1952;50.872;6.692;2022-07-29T09:26:33;6.83;;;4.63;;
3873;SDS011;1952;50.872;6.692;2022-07-29T09:29:08;5.60;;;4.40;;
3873;SDS011;1952;50.872;6.692;2022-07-29T09:31:39;5.83;;;4.30;;
3873;SDS011;1952;50.872;6.692;2022-07-29T09:34:09;6.17;;;4.10;;
3873;SDS011;1952;50.872;6.692;2022-07-29T09:36:40;6.53;;;4.30;;
3873;SDS011;1952;50.872;6.692;2022-07-29T09:39:10;5.77;;;3.90;;
3873;SDS011;1952;50.872;6.692;2022-07-29T09:41:47;5.00;;;4.57;;
3873;SDS011;1952;50.872;6.692;2022-07-29T09:44:16;4.90;;;4.40;;
3873;SDS011;1952;50.872;6.692;2022-07-29T09:50:04;6.77;;;5.47;;
3873;SDS011;1952;50.872;6.692;2022-07-29T09:56:45;6.97;;;4.10;;
3873;SDS011;1952;50.872;6.692;2022-07-29T09:59:14;6.13;;;4.40;;
3873;SDS011;1952;50.872;6.692;2022-07-29T10:01:43;7.43;;;5.53;;
3873;SDS011;1952;50.872;6.692;2022-07-29T10:04:14;5.03;;;4.63;;
3873;SDS011;1952;50.872;6.692;2022-07-29T10:06:55;5.47;;;4.30;;
3873;SDS011;1952;50.872;6.692;2022-07-29T10:09:34;6.00;;;4.60;;
3873;SDS011;1952;50.872;6.692;2022-07-29T10:12:09;4.43;;;4.03;;
3873;SDS011;1952;50.872;6.692;2022-07-29T10:14:40;7.30;;;4.00;;
3873;SDS011;1952;50.872;6.692;2022-07-29T10:17:14;6.77;;;4.80;;
3873;SDS011;1952;50.872;6.692;2022-07-29T10:19:48;5.20;;;4.70;;
3873;SDS011;1952;50.872;6.692;2022-07-29T10:22:17;5.43;;;4.90;;
3873;SDS011;1952;50.872;6.692;2022-07-29T10:25:09;6.33;;;5.07;;
3873;SDS011;1952;50.872;6.692;2022-07-29T10:27:39;7.97;;;3.90;;
3873;SDS011;1952;50.872;6.692;2022-07-29T10:30:09;5.90;;;5.10;;
3873;SDS011;1952;50.872;6.692;2022-07-29T10:32:39;4.90;;;4.37;;
3873;SDS011;1952;50.872;6.692;2022-07-29T10:35:31;4.90;;;4.20;;
3873;SDS011;1952;50.872;6.692;2022-07-29T10:38:21;7.20;;;4.67;;
3873;SDS011;1952;50.872;6.692;2022-07-29T10:41:18;5.30;;;4.60;;
3873;SDS011;1952;50.872;6.692;2022-07-29T10:44:08;4.67;;;3.80;;
3873;SDS011;1952;50.872;6.692;2022-07-29T10:46:48;7.00;;;4.17;;
3873;SDS011;1952;50.872;6.692;2022-07-29T10:49:18;5.27;;;3.70;;
3873;SDS011;1952;50.872;6.692;2022-07-29T10:51:51;6.97;;;3.90;;
3873;SDS011;1952;50.872;6.692;2022-07-29T10:54:36;4.07;;;3.77;;
3873;SDS011;1952;50.872;6.692;2022-07-29T10:57:14;4.47;;;3.57;;
3873;SDS011;1952;50.872;6.692;2022-07-29T11:03:01;4.97;;;3.60;;
3873;SDS011;1952;50.872;6.692;2022-07-29T11:05:54;5.20;;;3.73;;
3873;SDS011;1952;50.872;6.692;2022-07-29T11:08:25;3.63;;;3.33;;
3873;SDS011;1952;50.872;6.692;2022-07-29T11:14:03;5.37;;;3.60;;
3873;SDS011;1952;50.872;6.692;2022-07-29T11:19:34;4.10;;;3.70;;
3873;SDS011;1952;50.872;6.692;2022-07-29T11:22:08;4.50;;;3.23;;
3873;SDS011;1952;50.872;6.692;2022-07-29T11:24:41;4.03;;;3.63;;
3873;SDS011;1952;50.872;6.692;2022-07-29T11:27:16;4.00;;;3.10;;
3873;SDS011;1952;50.872;6.692;2022-07-29T11:29:51;3.83;;;3.47;;
3873;SDS011;1952;50.872;6.692;2022-07-29T11:32:24;6.10;;;4.03;;
3873;SDS011;1952;50.872;6.692;2022-07-29T11:35:12;4.17;;;3.77;;
3873;SDS011;1952;50.872;6.692;2022-07-29T11:43:49;6.07;;;3.60;;
3873;SDS011;1952;50.872;6.692;2022-07-29T11:49:14;2.90;;;2.50;;
3873;SDS011;1952;50.872;6.692;2022-07-29T11:52:07;4.33;;;3.47;;
3873;SDS011;1952;50.872;6.692;2022-07-29T12:44:03;6.70;;;4.10;;
3873;SDS011;1952;50.872;6.692;2022-07-29T12:46:38;6.93;;;3.63;;
3873;SDS011;1952;50.872;6.692;2022-07-29T12:49:20;4.37;;;3.60;;
3873;SDS011;1952;50.872;6.692;2022-07-29T12:52:00;4.90;;;3.40;;
3873;SDS011;1952;50.872;6.692;2022-07-29T12:54:57;5.90;;;3.67;;
3873;SDS011;1952;50.872;6.692;2022-07-29T12:57:45;7.60;;;3.80;;
3873;SDS011;1952;50.872;6.692;2022-07-29T13:00:23;3.80;;;3.50;;
3873;SDS011;1952;50.872;6.692;2022-07-29T13:03:01;5.10;;;3.70;;
3873;SDS011;1952;50.872;6.692;2022-07-29T13:05:57;5.10;;;3.87;;
3873;SDS011;1952;50.872;6.692;2022-07-29T13:08:27;4.70;;;4.20;;
3873;SDS011;1952;50.872;6.692;2022-07-29T13:11:03;4.03;;;3.73;;
3873;SDS011;1952;50.872;6.692;2022-07-29T13:13:49;5.47;;;3.60;;
3873;SDS011;1952;50.872;6.692;2022-07-29T13:16:35;6.70;;;4.33;;
3873;SDS011;1952;50.872;6.692;2022-07-29T13:19:14;5.10;;;4.60;;
3873;SDS011;1952;50.872;6.692;2022-07-29T13:21:57;7.10;;;4.33;;
3873;SDS011;1952;50.872;6.692;2022-07-29T13:24:28;5.47;;;4.97;;
3873;SDS011;1952;50.872;6.692;2022-07-29T13:26:58;5.80;;;4.50;;
3873;SDS011;1952;50.872;6.692;2022-07-29T13:29:41;5.40;;;4.60;;
3873;SDS011;1952;50.872;6.692;2022-07-29T13:32:42;7.67;;;6.10;;
3873;SDS011;1952;50.872;6.692;2022-07-29T13:35:26;4.73;;;4.33;;
3873;SDS011;1952;50.872;6.692;2022-07-29T13:37:56;6.30;;;4.90;;
3873;SDS011;1952;50.872;6.692;2022-07-29T13:40:42;5.97;;;4.60;;
3873;SDS011;1952;50.872;6.692;2022-07-29T13:43:16;6.13;;;4.60;;
3873;SDS011;1952;50.872;6.692;2022-07-29T13:45:46;5.30;;;4.80;;
3873;SDS011;1952;50.872;6.692;2022-07-29T13:48:18;6.10;;;4.40;;
3873;SDS011;1952;50.872;6.692;2022-07-29T13:51:00;5.30;;;4.80;;
3873;SDS011;1952;50.872;6.692;2022-07-29T13:53:35;6.47;;;5.80;;
3873;SDS011;1952;50.872;6.692;2022-07-29T13:56:31;7.53;;;5.20;;
3873;SDS011;1952;50.872;6.692;2022-07-29T13:59:00;5.60;;;5.10;;
3873;SDS011;1952;50.872;6.692;2022-07-29T14:02:00;5.33;;;4.53;;
3873;SDS011;1952;50.872;6.692;2022-07-29T14:04:59;5.53;;;4.60;;
3873;SDS011;1952;50.872;6.692;2022-07-29T14:07:41;5.00;;;4.50;;
3873;SDS011;1952;50.872;6.692;2022-07-29T14:10:24;4.80;;;3.40;;
3873;SDS011;1952;50.872;6.692;2022-07-29T14:13:00;9.60;;;4.33;;
3873;SDS011;1952;50.872;6.692;2022-07-29T14:15:44;4.30;;;3.87;;
3873;SDS011;1952;50.872;6.692;2022-07-29T14:18:13;4.10;;;3.53;;
3873;SDS011;1952;50.872;6.692;2022-07-29T14:21:13;4.70;;;3.43;;
3873;SDS011;1952;50.872;6.692;2022-07-29T14:23:58;3.83;;;3.50;;
3873;SDS011;1952;50.872;6.692;2022-07-29T14:26:57;3.87;;;3.57;;
3873;SDS011;1952;50.872;6.692;2022-07-29T14:29:33;4.73;;;3.70;;
3873;SDS011;1952;50.872;6.692;2022-07-29T14:32:16;5.83;;;3.50;;
3873;SDS011;1952;50.872;6.692;2022-07-29T14:34:49;4.03;;;3.60;;
3873;SDS011;1952;50.872;6.692;2022-07-29T14:37:49;3.83;;;3.10;;
3873;SDS011;1952;50.872;6.692;2022-07-29T14:40:34;4.30;;;3.70;;
3873;SDS011;1952;50.872;6.692;2022-07-29T14:43:03;4.10;;;3.80;;
3873;SDS011;1952;50.872;6.692;2022-07-29T14:45:41;4.30;;;3.57;;
3873;SDS011;1952;50.872;6.692;2022-07-29T14:48:13;4.80;;;3.30;;
3873;SDS011;1952;50.872;6.692;2022-07-29T14:50:47;4.53;;;3.87;;
3873;SDS011;1952;50.872;6.692;2022-07-29T14:53:31;5.23;;;3.47;;
3873;SDS011;1952;50.872;6.692;2022-07-29T14:56:18;5.13;;;3.57;;
3873;SDS011;1952;50.872;6.692;2022-07-29T14:59:05;5.83;;;3.67;;
3873;SDS011;1952;50.872;6.692;2022-07-29T15:01:52;6.23;;;3.03;;
3873;SDS011;1952;50.872;6.692;2022-07-29T15:04:22;3.90;;;3.30;;
3873;SDS011;1952;50.872;6.692;2022-07-29T15:06:53;3.63;;;3.30;;
3873;SDS011;1952;50.872;6.692;2022-07-29T15:12:49;4.13;;;2.97;;
3873;SDS011;1952;50.872;6.692;2022-07-29T15:15:24;5.30;;;3.40;;
3873;SDS011;1952;50.872;6.692;2022-07-29T15:18:06;4.40;;;3.50;;
3873;SDS011;1952;50.872;6.692;2022-07-29T15:21:02;3.60;;;3.40;;
3873;SDS011;1952;50.872;6.692;2022-07-29T15:23:46;3.90;;;2.70;;
3873;SDS011;1952;50.872;6.692;2022-07-29T15:29:39;3.40;;;3.20;;
3873;SDS011;1952;50.872;6.692;2022-07-29T15:32:35;3.43;;;3.13;;
3873;SDS011;1952;50.872;6.692;2022-07-29T15:35:18;5.03;;;3.17;;
3873;SDS011;1952;50.872;6.692;2022-07-29T15:41:43;3.40;;;3.00;;
3873;SDS011;1952;50.872;6.692;2022-07-29T15:44:26;5.50;;;3.70;;
3873;SDS011;1952;50.872;6.692;2022-07-29T15:47:16;3.80;;;2.90;;
3873;SDS011;1952;50.872;6.692;2022-07-29T15:50:15;3.30;;;3.10;;
3873;SDS011;1952;50.872;6.692;2022-07-29T15:53:12;5.63;;;3.23;;
3873;SDS011;1952;50.872;6.692;2022-07-29T15:56:09;3.00;;;2.80;;
3873;SDS011;1952;50.872;6.692;2022-07-29T15:59:08;3.47;;;2.90;;
3873;SDS011;1952;50.872;6.692;2022-07-29T16:01:48;5.37;;;3.47;;
3873;SDS011;1952;50.872;6.692;2022-07-29T16:04:32;3.70;;;3.40;;
3873;SDS011;1952;50.872;6.692;2022-07-29T16:07:14;3.70;;;2.77;;
3873;SDS011;1952;50.872;6.692;2022-07-29T16:09:47;4.70;;;3.27;;
3873;SDS011;1952;50.872;6.692;2022-07-29T16:12:33;4.43;;;3.20;;
3873;SDS011;1952;50.872;6.692;2022-07-29T16:15:04;4.20;;;2.90;;
3873;SDS011;1952;50.872;6.692;2022-07-29T16:17:42;3.03;;;2.77;;
3873;SDS011;1952;50.872;6.692;2022-07-29T16:20:10;3.50;;;3.17;;
3873;SDS011;1952;50.872;6.692;2022-07-29T16:22:47;3.70;;;3.10;;
3873;SDS011;1952;50.872;6.692;2022-07-29T16:25:26;3.00;;;2.80;;
3873;SDS011;1952;50.872;6.692;2022-07-29T16:28:23;4.13;;;3.60;;
3873;SDS011;1952;50.872;6.692;2022-07-29T16:31:13;2.93;;;2.73;;
3873;SDS011;1952;50.872;6.692;2022-07-29T16:33:45;7.13;;;2.93;;
3873;SDS011;1952;50.872;6.692;2022-07-29T16:36:20;3.60;;;3.30;;
3873;SDS011;1952;50.872;6.692;2022-07-29T16:39:16;4.33;;;3.10;;
3873;SDS011;1952;50.872;6.692;2022-07-29T16:41:48;3.30;;;3.00;;
3873;SDS011;1952;50.872;6.692;2022-07-29T16:44:26;2.83;;;2.63;;
3873;SDS011;1952;50.872;6.692;2022-07-29T16:47:10;5.93;;;4.23;;
3873;SDS011;1952;50.872;6.692;2022-07-29T16:49:38;4.30;;;3.87;;
3873;SDS011;1952;50.872;6.692;2022-07-29T16:52:07;4.13;;;3.73;;
3873;SDS011;1952;50.872;6.692;2022-07-29T16:54:36;4.23;;;3.83;;
3873;SDS011;1952;50.872;6.692;2022-07-29T16:57:06;5.87;;;3.73;;
3873;SDS011;1952;50.872;6.692;2022-07-29T16:59:50;3.80;;;3.50;;
3873;SDS011;1952;50.872;6.692;2022-07-29T17:02:40;5.43;;;4.07;;
3873;SDS011;1952;50.872;6.692;2022-07-29T17:05:15;6.40;;;5.10;;
3873;SDS011;1952;50.872;6.692;2022-07-29T17:08:19;4.07;;;3.60;;
3873;SDS011;1952;50.872;6.692;2022-07-29T17:10:52;4.40;;;4.00;;
3873;SDS011;1952;50.872;6.692;2022-07-29T17:13:21;3.83;;;3.53;;
3873;SDS011;1952;50.872;6.692;2022-07-29T17:15:53;7.50;;;3.60;;
3873;SDS011;1952;50.872;6.692;2022-07-29T17:18:35;4.77;;;4.37;;
3873;SDS011;1952;50.872;6.692;2022-07-29T17:21:11;4.80;;;4.30;;
3873;SDS011;1952;50.872;6.692;2022-07-29T17:23:48;4.60;;;4.20;;
3873;SDS011;1952;50.872;6.692;2022-07-29T17:26:49;5.00;;;4.07;;
3873;SDS011;1952;50.872;6.692;2022-07-29T17:29:33;5.30;;;4.43;;
3873;SDS011;1952;50.872;6.692;2022-07-29T17:32:21;4.23;;;3.93;;
3873;SDS011;1952;50.872;6.692;2022-07-29T17:34:56;4.20;;;3.83;;
3873;SDS011;1952;50.872;6.692;2022-07-29T17:37:29;4.27;;;3.87;;
3873;SDS011;1952;50.872;6.692;2022-07-29T17:39:57;5.97;;;4.50;;
3873;SDS011;1952;50.872;6.692;2022-07-29T17:42:29;5.00;;;4.60;;
3873;SDS011;1952;50.872;6.692;2022-07-29T17:45:03;4.43;;;4.00;;
3873;SDS011;1952;50.872;6.692;2022-07-29T17:47:32;5.03;;;3.90;;
3873;SDS011;1952;50.872;6.692;2022-07-29T17:50:08;4.20;;;3.80;;
3873;SDS011;1952;50.872;6.692;2022-07-29T17:52:40;6.63;;;4.73;;
3873;SDS011;1952;50.872;6.692;2022-07-29T17:55:09;4.47;;;4.07;;
3873;SDS011;1952;50.872;6.692;2022-07-29T18:35:26;8.57;;;5.00;;
3873;SDS011;1952;50.872;6.692;2022-07-29T18:37:56;6.00;;;5.40;;
3873;SDS011;1952;50.872;6.692;2022-07-29T18:40:28;5.23;;;4.80;;
3873;SDS011;1952;50.872;6.692;2022-07-29T18:42:57;5.37;;;4.97;;
3873;SDS011;1952;50.872;6.692;2022-07-29T18:45:28;5.50;;;5.00;;
3873;SDS011;1952;50.872;6.692;2022-07-29T18:48:05;6.43;;;4.90;;
3873;SDS011;1952;50.872;6.692;2022-07-29T18:50:40;5.60;;;5.10;;
3873;SDS011;1952;50.872;6.692;2022-07-29T18:53:08;6.13;;;5.63;;
3873;SDS011;1952;50.872;6.692;2022-07-29T18:55:41;4.33;;;3.93;;
3873;SDS011;1952;50.872;6.692;2022-07-29T18:58:12;8.33;;;4.60;;
3873;SDS011;1952;50.872;6.692;2022-07-29T19:00:53;4.77;;;4.37;;
3873;SDS011;1952;50.872;6.692;2022-07-29T19:03:21;4.97;;;4.60;;
3873;SDS011;1952;50.872;6.692;2022-07-29T19:05:57;5.23;;;4.83;;
3873;SDS011;1952;50.872;6.692;2022-07-29T19:08:31;4.80;;;4.20;;
3873;SDS011;1952;50.872;6.692;2022-07-29T19:10:59;4.20;;;3.73;;
3873;SDS011;1952;50.872;6.692;2022-07-29T19:13:46;5.00;;;4.60;;
3873;SDS011;1952;50.872;6.692;2022-07-29T19:16:20;4.93;;;4.63;;
3873;SDS011;1952;50.872;6.692;2022-07-29T19:19:03;4.93;;;4.53;;
3873;SDS011;1952;50.872;6.692;2022-07-29T19:21:34;5.40;;;5.00;;
3873;SDS011;1952;50.872;6.692;2022-07-29T19:24:02;5.87;;;5.30;;
3873;SDS011;1952;50.872;6.692;2022-07-29T19:26:37;7.03;;;4.90;;
3873;SDS011;1952;50.872;6.692;2022-07-29T19:29:19;5.00;;;4.60;;
3873;SDS011;1952;50.872;6.692;2022-07-29T19:31:51;4.87;;;4.47;;
3873;SDS011;1952;50.872;6.692;2022-07-29T19:34:30;6.47;;;5.40;;
3873;SDS011;1952;50.872;6.692;2022-07-29T19:40:28;5.57;;;5.07;;
3873;SDS011;1952;50.872;6.692;2022-07-29T19:43:01;5.57;;;5.03;;
3873;SDS011;1952;50.872;6.692;2022-07-29T19:45:30;6.17;;;5.57;;
3873;SDS011;1952;50.872;6.692;2022-07-29T19:48:04;6.30;;;5.50;;
3873;SDS011;1952;50.872;6.692;2022-07-29T19:50:32;4.93;;;4.50;;
3873;SDS011;1952;50.872;6.692;2022-07-29T19:53:02;5.90;;;5.40;;
3873;SDS011;1952;50.872;6.692;2022-07-29T19:55:30;7.07;;;5.10;;
3873;SDS011;1952;50.872;6.692;2022-07-29T19:57:59;5.90;;;5.20;;
3873;SDS011;1952;50.872;6.692;2022-07-29T20:00:33;5.33;;;4.93;;
3873;SDS011;1952;50.872;6.692;2022-07-29T20:03:02;5.67;;;5.07;;
3873;SDS011;1952;50.872;6.692;2022-07-29T20:05:32;5.77;;;4.80;;
3873;SDS011;1952;50.872;6.692;2022-07-29T20:08:01;6.90;;;5.33;;
3873;SDS011;1952;50.872;6.692;2022-07-29T20:10:31;8.37;;;5.60;;
3873;SDS011;1952;50.872;6.692;2022-07-29T20:13:00;6.17;;;5.67;;